createdAt,value
2022-12-18T00:01:07.319Z,66.16
2022-12-18T00:03:37.487Z,66.06
2022-12-18T00:06:07.204Z,66.48
2022-12-18T00:08:33.754Z,66.05
2022-12-18T00:11:18.181Z,66.01
2022-12-18T00:13:45.257Z,65.98
2022-12-18T00:16:14.838Z,65.94
2022-12-18T00:18:42.598Z,65.96
2022-12-18T00:21:11.388Z,66.03
2022-12-18T00:23:39.007Z,66.34
2022-12-18T00:26:08.580Z,65.78
2022-12-18T00:28:35.025Z,65.83
2022-12-18T00:31:06.444Z,66.35
2022-12-18T00:33:33.729Z,66.30
2022-12-18T00:36:10.073Z,65.90
2022-12-18T00:38:37.334Z,66.45
2022-12-18T00:41:04.778Z,66.38
2022-12-18T00:43:31.364Z,65.89
2022-12-18T00:45:58.055Z,66.09
2022-12-18T00:48:24.506Z,66.27
2022-12-18T00:50:51.449Z,66.10
2022-12-18T00:53:18.383Z,65.90
2022-12-18T00:55:46.287Z,66.24
2022-12-18T00:58:14.704Z,65.75
2022-12-18T01:00:41.885Z,66.00
2022-12-18T01:03:08.595Z,66.29
2022-12-18T01:05:35.356Z,65.97
2022-12-18T01:08:01.849Z,66.29
2022-12-18T01:10:28.311Z,65.89
2022-12-18T01:12:54.693Z,65.78
2022-12-18T01:15:21.512Z,65.67
2022-12-18T01:17:47.936Z,65.93
2022-12-18T01:20:15.074Z,65.82
2022-12-18T01:22:41.607Z,66.15
2022-12-18T01:25:09.679Z,65.92
2022-12-18T01:27:36.497Z,65.61
2022-12-18T01:30:04.099Z,66.17
2022-12-18T01:32:32.644Z,65.88
2022-12-18T01:34:59.321Z,66.02
2022-12-18T01:37:26.113Z,66.15
2022-12-18T01:39:55.391Z,65.39
2022-12-18T01:42:24.578Z,66.19
2022-12-18T01:45:03.778Z,65.96
2022-12-18T01:47:30.420Z,65.88
2022-12-18T01:50:00.548Z,65.90
2022-12-18T01:52:33.887Z,66.16
2022-12-18T01:55:02.663Z,65.58
2022-12-18T01:57:29.411Z,65.74
2022-12-18T02:00:01.888Z,65.65
2022-12-18T02:02:30.088Z,65.75
2022-12-18T02:04:56.858Z,65.48
2022-12-18T02:07:41.559Z,66.12
2022-12-18T02:10:19.833Z,65.94
2022-12-18T02:12:52.170Z,65.83
2022-12-18T02:15:32.718Z,65.74
2022-12-18T02:18:09.963Z,65.54
2022-12-18T02:20:42.623Z,65.58
2022-12-18T02:23:18.422Z,65.99
2022-12-18T02:26:07.158Z,65.37
2022-12-18T02:28:41.130Z,65.48
2022-12-18T02:31:11.545Z,65.29
2022-12-18T02:33:40.574Z,65.72
2022-12-18T02:36:09.698Z,65.69
2022-12-18T02:38:37.303Z,65.71
2022-12-18T02:41:05.431Z,65.30
2022-12-18T02:43:32.046Z,65.21
2022-12-18T02:46:01.788Z,65.41
2022-12-18T02:48:35.178Z,65.69
2022-12-18T02:51:09.324Z,65.95
2022-12-18T02:53:46.279Z,65.15
2022-12-18T02:56:18.622Z,65.00
2022-12-18T02:58:45.011Z,65.07
2022-12-18T03:01:25.906Z,65.05
2022-12-18T03:04:05.260Z,65.45
2022-12-18T03:06:38.615Z,65.23
2022-12-18T03:09:17.629Z,65.33
2022-12-18T03:12:08.646Z,65.08
2022-12-18T03:14:39.059Z,65.33
2022-12-18T03:17:11.920Z,65.09
2022-12-18T03:19:40.368Z,65.77
2022-12-18T03:22:08.603Z,65.19
2022-12-18T03:24:39.989Z,64.99
2022-12-18T03:27:12.849Z,65.62
2022-12-18T03:29:43.747Z,65.36
2022-12-18T03:32:24.683Z,65.70
2022-12-18T03:34:52.971Z,65.59
2022-12-18T03:37:19.599Z,65.69
2022-12-18T03:39:46.300Z,65.32
2022-12-18T03:42:31.034Z,65.32
2022-12-18T03:45:09.901Z,65.29
2022-12-18T03:47:45.754Z,64.96
2022-12-18T03:50:12.999Z,65.42
2022-12-18T03:52:50.024Z,65.50
2022-12-18T03:55:19.697Z,65.47
2022-12-18T03:57:48.585Z,65.34
2022-12-18T04:00:18.000Z,65.48
2022-12-18T04:02:49.460Z,65.19
2022-12-18T04:05:17.778Z,65.36
2022-12-18T04:07:46.158Z,65.52
2022-12-18T04:10:13.770Z,65.18
2022-12-18T04:12:40.319Z,65.03
2022-12-18T04:15:08.068Z,65.27
2022-12-18T04:17:34.568Z,65.23
2022-12-18T04:20:01.154Z,65.04
2022-12-18T04:22:27.761Z,65.55
2022-12-18T04:24:54.413Z,65.35
2022-12-18T04:27:21.154Z,65.34
2022-12-18T04:29:47.940Z,65.25
2022-12-18T04:32:14.555Z,65.39
2022-12-18T04:34:41.011Z,65.11
2022-12-18T04:37:07.638Z,65.59
2022-12-18T04:39:34.215Z,65.21
2022-12-18T04:42:00.858Z,64.96
2022-12-18T04:44:27.473Z,65.37
2022-12-18T04:46:54.046Z,65.22
2022-12-18T04:49:21.126Z,65.22
2022-12-18T04:51:48.071Z,65.33
2022-12-18T04:54:14.550Z,65.35
2022-12-18T04:56:41.225Z,65.35
2022-12-18T04:59:07.814Z,65.14
2022-12-18T05:01:35.167Z,65.17
2022-12-18T05:04:02.809Z,65.25
2022-12-18T05:06:29.744Z,64.51
2022-12-18T05:08:56.444Z,65.21
2022-12-18T05:11:25.389Z,64.47
2022-12-18T05:13:51.897Z,64.61
2022-12-18T05:16:20.819Z,64.68
2022-12-18T05:18:47.717Z,64.97
2022-12-18T05:21:14.430Z,64.73
2022-12-18T05:23:41.457Z,64.70
2022-12-18T05:26:08.873Z,64.69
2022-12-18T05:28:37.397Z,64.91
2022-12-18T05:31:05.944Z,64.60
2022-12-18T05:33:34.663Z,64.72
2022-12-18T05:36:03.027Z,64.67
2022-12-18T05:38:31.339Z,64.80
2022-12-18T05:40:58.669Z,64.81
2022-12-18T05:43:26.451Z,64.27
2022-12-18T05:45:54.047Z,64.09
2022-12-18T05:48:21.184Z,64.22
2022-12-18T05:50:49.168Z,64.23
2022-12-18T05:53:23.436Z,64.39
2022-12-18T05:55:49.950Z,64.36
2022-12-18T05:58:19.869Z,64.41
2022-12-18T06:00:47.020Z,64.00
2022-12-18T06:03:15.154Z,64.06
2022-12-18T06:05:48.334Z,63.90
2022-12-18T06:08:17.336Z,64.50
2022-12-18T06:10:52.289Z,64.57
2022-12-18T06:13:18.813Z,64.14
2022-12-18T06:15:45.447Z,63.59
2022-12-18T06:18:12.047Z,64.30
2022-12-18T06:20:40.713Z,63.99
2022-12-18T06:23:07.366Z,64.01
2022-12-18T06:25:37.949Z,64.27
2022-12-18T06:28:04.662Z,64.01
2022-12-18T06:30:31.825Z,63.91
2022-12-18T06:33:01.533Z,64.02
2022-12-18T06:35:28.137Z,63.82
2022-12-18T06:37:54.724Z,63.71
2022-12-18T06:40:21.539Z,63.75
2022-12-18T06:42:50.435Z,64.10
2022-12-18T06:45:17.537Z,63.45
2022-12-18T06:47:47.200Z,63.33
2022-12-18T06:50:14.103Z,63.79
2022-12-18T06:52:41.502Z,64.28
2022-12-18T06:55:10.405Z,63.79
2022-12-18T06:57:37.680Z,64.35
2022-12-18T07:00:06.359Z,63.49
2022-12-18T07:02:33.392Z,63.63
2022-12-18T07:05:00.269Z,64.41
2022-12-18T07:07:26.950Z,63.90
2022-12-18T07:09:53.542Z,63.88
2022-12-18T07:12:20.026Z,63.69
2022-12-18T07:14:46.728Z,64.11
2022-12-18T07:17:13.409Z,63.36
2022-12-18T07:19:40.033Z,63.39
2022-12-18T07:22:09.376Z,64.27
2022-12-18T07:24:36.123Z,64.22
2022-12-18T07:27:05.597Z,63.51
2022-12-18T07:29:36.787Z,63.75
2022-12-18T07:32:06.380Z,63.57
2022-12-18T07:34:33.108Z,63.44
2022-12-18T07:36:59.877Z,63.18
2022-12-18T07:39:26.805Z,63.83
2022-12-18T07:42:14.580Z,63.69
2022-12-18T07:44:41.177Z,62.65
2022-12-18T07:47:11.995Z,62.19
2022-12-18T07:49:39.116Z,61.38
2022-12-18T07:52:05.646Z,61.31
2022-12-18T07:54:32.188Z,60.68
2022-12-18T07:56:58.745Z,60.67
2022-12-18T07:59:25.350Z,60.22
2022-12-18T08:01:51.957Z,60.48
2022-12-18T08:04:18.728Z,60.49
2022-12-18T08:06:47.917Z,60.26
2022-12-18T08:09:20.284Z,60.54
2022-12-18T08:11:46.901Z,60.24
2022-12-18T08:14:13.536Z,59.89
2022-12-18T08:16:40.518Z,60.15
2022-12-18T08:19:07.099Z,60.20
2022-12-18T08:21:33.706Z,60.33
2022-12-18T08:24:02.396Z,60.21
2022-12-18T08:26:34.736Z,60.36
2022-12-18T08:29:02.089Z,60.65
2022-12-18T08:31:30.776Z,60.57
2022-12-18T08:33:59.939Z,60.51
2022-12-18T08:36:29.280Z,60.42
2022-12-18T08:39:01.282Z,60.88
2022-12-18T08:41:27.884Z,61.16
2022-12-18T08:44:14.159Z,61.03
2022-12-18T08:46:43.172Z,61.37
2022-12-18T08:49:11.333Z,61.75
2022-12-18T08:51:38.747Z,61.54
2022-12-18T08:54:06.849Z,61.68
2022-12-18T08:56:36.185Z,62.06
2022-12-18T08:59:02.980Z,62.00
2022-12-18T09:01:29.760Z,61.77
2022-12-18T09:03:58.085Z,62.45
2022-12-18T09:06:25.231Z,61.93
2022-12-18T09:08:51.882Z,62.20
2022-12-18T09:11:26.272Z,62.08
2022-12-18T09:13:53.923Z,62.36
2022-12-18T09:16:25.021Z,62.71
2022-12-18T09:19:08.305Z,63.01
2022-12-18T09:21:43.364Z,62.44
2022-12-18T09:24:14.470Z,62.56
2022-12-18T09:26:47.672Z,62.91
2022-12-18T09:29:15.665Z,62.90
2022-12-18T09:31:43.465Z,62.83
2022-12-18T09:34:10.036Z,62.96
2022-12-18T09:36:38.767Z,63.12
2022-12-18T09:39:08.581Z,63.44
2022-12-18T09:41:57.248Z,63.46
2022-12-18T09:44:34.402Z,63.70
2022-12-18T09:47:41.383Z,63.49
2022-12-18T09:50:31.709Z,63.61
2022-12-18T09:53:03.955Z,63.61
2022-12-18T09:55:38.362Z,63.97
2022-12-18T09:58:16.729Z,63.97
2022-12-18T10:00:43.865Z,63.58
2022-12-18T10:03:15.260Z,63.65
2022-12-18T10:06:03.015Z,63.47
2022-12-18T10:08:53.001Z,63.32
2022-12-18T10:11:25.874Z,63.24
2022-12-18T10:14:04.840Z,62.95
2022-12-18T10:16:44.236Z,63.31
2022-12-18T10:19:29.397Z,63.01
2022-12-18T10:22:26.249Z,63.38
2022-12-18T10:25:25.853Z,63.40
2022-12-18T10:28:14.007Z,63.35
2022-12-18T10:30:42.474Z,63.42
2022-12-18T10:33:22.298Z,63.68
2022-12-18T10:35:56.897Z,63.65
2022-12-18T10:38:24.919Z,63.67
2022-12-18T10:40:57.504Z,64.20
2022-12-18T10:43:38.393Z,64.08
2022-12-18T10:46:11.036Z,63.60
2022-12-18T10:48:47.747Z,63.98
2022-12-18T10:51:31.718Z,64.11
2022-12-18T10:54:23.174Z,63.68
2022-12-18T10:56:52.839Z,64.43
2022-12-18T10:59:19.855Z,64.13
2022-12-18T11:02:02.079Z,64.27
2022-12-18T11:04:32.189Z,64.22
2022-12-18T11:07:11.726Z,63.94
2022-12-18T11:09:42.767Z,63.89
2022-12-18T11:12:26.347Z,64.19
2022-12-18T11:14:54.827Z,64.69
2022-12-18T11:17:34.688Z,64.49
2022-12-18T11:20:08.011Z,64.85
2022-12-18T11:22:39.141Z,64.88
2022-12-18T11:25:35.456Z,64.82
2022-12-18T11:28:26.639Z,64.91
2022-12-18T11:31:24.143Z,65.19
2022-12-18T11:34:31.305Z,65.19
2022-12-18T11:37:05.418Z,65.00
2022-12-18T11:39:43.959Z,64.96
2022-12-18T11:42:27.641Z,64.82
2022-12-18T11:45:09.784Z,65.28
2022-12-18T11:48:16.052Z,65.14
2022-12-18T11:50:56.526Z,65.48
2022-12-18T11:53:27.367Z,64.98
2022-12-18T11:56:25.921Z,65.33
2022-12-18T11:59:15.694Z,65.19
2022-12-18T12:02:13.309Z,65.44
2022-12-18T12:04:49.554Z,65.40
2022-12-18T12:07:43.897Z,65.37
2022-12-18T12:10:10.332Z,65.17
2022-12-18T12:12:58.663Z,65.48
2022-12-18T12:15:50.667Z,65.52
2022-12-18T12:18:42.775Z,65.23
2022-12-18T12:21:40.382Z,65.83
2022-12-18T12:24:32.555Z,65.25
2022-12-18T12:27:37.023Z,65.51
2022-12-18T12:30:10.274Z,65.70
2022-12-18T12:33:00.206Z,65.54
2022-12-18T12:35:32.855Z,66.11
2022-12-18T12:38:08.977Z,65.97
2022-12-18T12:40:58.833Z,66.26
2022-12-18T12:43:52.806Z,66.51
2022-12-18T12:46:25.828Z,66.14
2022-12-18T12:49:10.777Z,66.02
2022-12-18T12:51:44.651Z,66.59
2022-12-18T12:54:18.736Z,66.00
2022-12-18T12:57:05.001Z,66.18
2022-12-18T12:59:50.527Z,66.11
2022-12-18T13:02:36.975Z,66.27
2022-12-18T13:05:12.938Z,66.02
2022-12-18T13:07:47.570Z,66.63
2022-12-18T13:10:28.685Z,66.60
2022-12-18T13:13:09.364Z,66.49
2022-12-18T13:15:48.586Z,66.85
2022-12-18T13:18:19.137Z,66.68
2022-12-18T13:20:53.657Z,66.21
2022-12-18T13:23:27.045Z,66.74
2022-12-18T13:26:26.438Z,66.86
2022-12-18T13:28:59.795Z,66.58
2022-12-18T13:31:58.081Z,66.38
2022-12-18T13:34:31.774Z,66.71
2022-12-18T13:37:40.578Z,66.09
2022-12-18T13:40:41.128Z,66.63
2022-12-18T13:43:19.998Z,66.28
2022-12-18T13:46:00.212Z,66.60
2022-12-18T13:48:28.695Z,66.49
2022-12-18T13:51:04.432Z,66.94
2022-12-18T13:53:35.306Z,66.38
2022-12-18T13:56:03.294Z,66.99
2022-12-18T13:58:30.189Z,66.56
2022-12-18T14:01:00.527Z,66.31
2022-12-18T14:03:29.606Z,66.15
2022-12-18T14:06:01.575Z,66.55
2022-12-18T14:08:34.881Z,66.48
2022-12-18T14:11:05.102Z,66.74
2022-12-18T14:13:36.670Z,66.73
2022-12-18T14:16:06.041Z,66.36
2022-12-18T14:18:57.106Z,66.73
2022-12-18T14:21:35.049Z,66.50
2022-12-18T14:24:20.036Z,66.26
2022-12-18T14:26:48.406Z,66.54
2022-12-18T14:29:32.918Z,66.09
2022-12-18T14:32:35.636Z,66.39
2022-12-18T14:35:14.362Z,66.19
2022-12-18T14:37:41.030Z,65.89
2022-12-18T14:40:14.219Z,66.14
2022-12-18T14:42:40.970Z,66.15
2022-12-18T14:45:41.499Z,65.87
2022-12-18T14:48:10.500Z,66.01
2022-12-18T14:50:39.347Z,65.98
2022-12-18T14:53:24.119Z,66.33
2022-12-18T14:55:51.804Z,65.94
2022-12-18T14:58:19.666Z,65.99
2022-12-18T15:00:46.536Z,66.00
2022-12-18T15:03:20.422Z,65.80
2022-12-18T15:05:49.970Z,65.84
2022-12-18T15:08:33.979Z,65.89
2022-12-18T15:11:01.287Z,66.20
2022-12-18T15:13:31.515Z,65.82
2022-12-18T15:16:04.150Z,65.60
2022-12-18T15:18:35.084Z,65.86
2022-12-18T15:21:10.500Z,66.01
2022-12-18T15:23:50.478Z,65.94
2022-12-18T15:26:19.671Z,65.90
2022-12-18T15:28:52.878Z,65.86
2022-12-18T15:31:31.237Z,65.67
2022-12-18T15:34:01.945Z,65.58
2022-12-18T15:36:37.915Z,65.72
2022-12-18T15:39:06.817Z,65.21
2022-12-18T15:41:36.148Z,66.07
2022-12-18T15:44:04.516Z,65.45
2022-12-18T15:46:34.354Z,65.44
2022-12-18T15:49:02.996Z,65.30
2022-12-18T15:51:36.424Z,65.63
2022-12-18T15:54:05.924Z,65.10
2022-12-18T15:56:53.962Z,65.44
2022-12-18T15:59:32.677Z,65.25
2022-12-18T16:01:59.340Z,65.48
2022-12-18T16:04:29.692Z,65.60
2022-12-18T16:08:06.395Z,65.15
2022-12-18T16:09:52.746Z,65.67
2022-12-18T16:12:27.742Z,65.89
2022-12-18T16:14:54.286Z,65.25
2022-12-18T16:17:23.624Z,65.05
2022-12-18T16:19:50.502Z,65.39
2022-12-18T16:22:23.952Z,65.28
2022-12-18T16:24:54.941Z,65.18
2022-12-18T16:27:22.828Z,65.39
2022-12-18T16:29:49.600Z,64.97
2022-12-18T16:32:21.527Z,65.06
2022-12-18T16:34:48.528Z,65.23
2022-12-18T16:37:17.960Z,65.26
2022-12-18T16:39:54.066Z,65.27
2022-12-18T16:42:21.167Z,65.31
2022-12-18T16:44:52.618Z,64.75
2022-12-18T16:47:20.084Z,65.33
2022-12-18T16:49:52.968Z,65.15
2022-12-18T16:52:24.108Z,64.74
2022-12-18T16:54:53.709Z,65.07
2022-12-18T16:57:24.086Z,64.86
2022-12-18T16:59:52.432Z,64.68
2022-12-18T17:02:24.649Z,64.73
2022-12-18T17:04:55.014Z,64.48
2022-12-18T17:07:21.542Z,64.74
2022-12-18T17:09:51.979Z,65.22
2022-12-18T17:12:18.500Z,64.75
2022-12-18T17:14:47.495Z,65.07
2022-12-18T17:17:21.777Z,64.77
2022-12-18T17:19:49.282Z,64.92
2022-12-18T17:22:15.872Z,64.73
2022-12-18T17:24:42.479Z,64.66
2022-12-18T17:27:09.021Z,64.49
2022-12-18T17:29:43.899Z,65.09
2022-12-18T17:32:13.776Z,64.69
2022-12-18T17:34:40.846Z,64.83
2022-12-18T17:37:08.975Z,65.03
2022-12-18T17:39:35.696Z,64.47
2022-12-18T17:42:02.316Z,65.01
2022-12-18T17:44:28.832Z,64.65
2022-12-18T17:46:58.500Z,64.84
2022-12-18T17:49:24.971Z,64.63
2022-12-18T17:51:51.643Z,64.71
2022-12-18T17:54:18.074Z,64.82
2022-12-18T17:56:44.693Z,65.09
2022-12-18T17:59:11.382Z,65.03
2022-12-18T18:01:47.383Z,64.48
2022-12-18T18:04:15.621Z,64.51
2022-12-18T18:06:42.319Z,64.69
2022-12-18T18:09:16.158Z,64.67
2022-12-18T18:12:02.925Z,64.51
2022-12-18T18:14:29.798Z,64.88
2022-12-18T18:16:56.401Z,64.72
2022-12-18T18:19:25.510Z,64.94
2022-12-18T18:21:53.825Z,64.96
2022-12-18T18:24:26.115Z,64.78
2022-12-18T18:26:57.819Z,64.30
2022-12-18T18:29:26.993Z,65.02
2022-12-18T18:31:57.235Z,64.75
2022-12-18T18:34:30.270Z,64.64
2022-12-18T18:37:01.186Z,64.39
2022-12-18T18:39:28.201Z,64.72
2022-12-18T18:41:55.006Z,64.53
2022-12-18T18:44:25.611Z,64.67
2022-12-18T18:46:56.720Z,64.53
2022-12-18T18:49:27.557Z,64.65
2022-12-18T18:51:55.265Z,64.35
2022-12-18T18:54:24.603Z,64.32
2022-12-18T18:57:22.660Z,64.21
2022-12-18T18:59:37.990Z,65.01
2022-12-18T19:02:07.676Z,64.30
2022-12-18T19:04:34.569Z,64.60
2022-12-18T19:07:01.678Z,64.79
2022-12-18T19:09:28.812Z,64.55
2022-12-18T19:14:56.488Z,64.64
2022-12-18T19:17:29.564Z,64.86
2022-12-18T19:19:59.917Z,64.44
2022-12-18T19:22:26.386Z,64.76
2022-12-18T19:24:52.836Z,64.47
2022-12-18T19:27:19.299Z,64.62
2022-12-18T19:29:45.734Z,64.57
2022-12-18T19:32:12.408Z,64.39
2022-12-18T19:34:39.714Z,64.62
2022-12-18T19:37:06.418Z,64.63
2022-12-18T19:39:33.210Z,64.71
2022-12-18T19:41:59.788Z,64.62
2022-12-18T19:44:26.885Z,64.88
2022-12-18T19:46:53.511Z,64.71
2022-12-18T19:49:20.020Z,64.83
2022-12-18T19:51:47.676Z,64.62
2022-12-18T19:54:17.734Z,64.48
2022-12-18T19:56:45.739Z,64.82
2022-12-18T19:59:12.835Z,64.88
2022-12-18T20:01:39.933Z,64.66
2022-12-18T20:04:07.009Z,65.21
2022-12-18T20:06:55.625Z,65.34
2022-12-18T20:09:24.455Z,65.29
2022-12-18T20:11:51.693Z,65.68
2022-12-18T20:14:22.312Z,65.47
2022-12-18T20:16:50.955Z,65.62
2022-12-18T20:19:18.229Z,66.00
2022-12-18T20:21:45.722Z,66.09
2022-12-18T20:24:13.038Z,66.02
2022-12-18T20:26:40.590Z,66.22
2022-12-18T20:29:07.233Z,66.52
2022-12-18T20:31:36.721Z,66.29
2022-12-18T20:34:06.040Z,66.25
2022-12-18T20:36:34.258Z,66.65
2022-12-18T20:39:06.525Z,66.90
2022-12-18T20:41:38.099Z,66.65
2022-12-18T20:44:22.531Z,66.91
2022-12-18T20:47:05.747Z,67.61
2022-12-18T20:49:35.754Z,67.26
2022-12-18T20:52:04.566Z,66.96
2022-12-18T20:54:31.241Z,66.93
2022-12-18T20:57:01.508Z,66.87
2022-12-18T20:59:28.231Z,67.29
2022-12-18T21:01:55.458Z,67.40
2022-12-18T21:04:22.916Z,67.59
2022-12-18T21:06:59.239Z,67.51
2022-12-18T21:09:37.514Z,67.98
2022-12-18T21:12:43.943Z,67.73
2022-12-18T21:15:18.073Z,68.38
2022-12-18T21:17:51.602Z,68.16
2022-12-18T21:20:18.992Z,67.82
2022-12-18T21:22:48.139Z,68.09
2022-12-18T21:25:16.991Z,67.92
2022-12-18T21:27:45.517Z,68.41
2022-12-18T21:30:18.937Z,68.49
2022-12-18T21:32:48.805Z,68.71
2022-12-18T21:35:22.974Z,68.84
2022-12-18T21:37:51.908Z,68.68
2022-12-18T21:40:25.565Z,69.13
2022-12-18T21:43:13.375Z,69.06
2022-12-18T21:45:46.837Z,68.96
2022-12-18T21:50:59.782Z,69.05
2022-12-18T21:53:26.446Z,68.88
2022-12-18T21:56:02.071Z,68.85
2022-12-18T21:58:30.863Z,69.63
2022-12-18T22:01:12.928Z,69.21
2022-12-18T22:03:40.338Z,69.16
2022-12-18T22:06:16.770Z,69.18
2022-12-18T22:08:44.167Z,69.82
2022-12-18T22:11:17.058Z,69.88
2022-12-18T22:13:48.206Z,69.79
2022-12-18T22:16:17.497Z,69.72
2022-12-18T22:18:48.163Z,69.73
2022-12-18T22:21:30.348Z,69.98
2022-12-18T22:24:07.825Z,69.96
2022-12-18T22:26:40.893Z,69.99
2022-12-18T22:29:29.173Z,69.74
2022-12-18T22:32:02.173Z,70.23
2022-12-18T22:34:29.219Z,70.17
2022-12-18T22:36:58.285Z,70.65
2022-12-18T22:39:29.365Z,71.14
2022-12-18T22:42:10.255Z,70.42
2022-12-18T22:44:36.814Z,71.00
2022-12-18T22:47:07.044Z,70.86
2022-12-18T22:49:35.335Z,70.63
2022-12-18T22:52:03.508Z,70.80
2022-12-18T22:54:31.183Z,71.17
2022-12-18T22:57:03.168Z,71.15
2022-12-18T22:59:29.937Z,70.98
2022-12-18T23:01:59.596Z,71.44
2022-12-18T23:04:36.334Z,71.35
2022-12-18T23:07:06.776Z,70.83
2022-12-18T23:09:33.911Z,71.42
2022-12-18T23:12:01.341Z,71.79
2022-12-18T23:14:31.941Z,71.20
2022-12-18T23:17:10.307Z,71.74
2022-12-18T23:19:45.503Z,71.32
2022-12-18T23:22:24.596Z,72.17
2022-12-18T23:24:51.351Z,71.66
2022-12-18T23:27:21.149Z,71.80
2022-12-18T23:29:48.438Z,71.52
2022-12-18T23:32:25.155Z,71.99
2022-12-18T23:34:51.851Z,71.65
2022-12-18T23:37:49.950Z,71.63
2022-12-18T23:40:05.807Z,71.65
2022-12-18T23:42:35.312Z,71.88
2022-12-18T23:45:04.498Z,71.82
2022-12-18T23:47:51.074Z,71.82
2022-12-18T23:50:18.026Z,72.02
2022-12-18T23:52:44.588Z,72.06
2022-12-18T23:55:13.382Z,72.04
2022-12-18T23:57:39.990Z,71.76
